Time;durP1;ratioP1;P1;durP2;ratioP2;P2;SDS_P1;SDS_P2;PMS_P1;PMS_P2;Temp;Humidity;BMP_temperature;BMP_pressure;BME280_temperature;BME280_humidity;BME280_pressure;Samples;Min_cycle;Max_cycle;Signal;HPM_P1;HPM_P2
2022/07/10 00:00:35;;;;;;;0.25;0.25;;;18.50;99.90;;;;;;4972637;28;20089;-75
2022/07/10 00:03:03;;;;;;;0.30;0.30;;;18.60;99.90;;;;;;4973684;28;20387;-74
2022/07/10 00:05:29;;;;;;;0.13;0.13;;;18.70;99.90;;;;;;4970987;28;20038;-74
2022/07/10 00:07:56;;;;;;;0.13;0.13;;;18.70;99.90;;;;;;4970899;28;20038;-74
2022/07/10 00:10:22;;;;;;;0.30;0.30;;;18.70;99.90;;;;;;4970873;28;20054;-74
2022/07/10 00:12:50;;;;;;;0.70;0.70;;;18.70;99.90;;;;;;4971731;28;20035;-74
2022/07/10 00:15:18;;;;;;;0.10;0.10;;;18.70;99.90;;;;;;4970405;28;20126;-74
2022/07/10 00:17:44;;;;;;;1.58;0.40;;;18.80;99.90;;;;;;4970885;28;20069;-74
2022/07/10 00:20:12;;;;;;;0.22;0.22;;;18.80;99.90;;;;;;4954237;28;20058;-74
2022/07/10 00:22:38;;;;;;;0.47;0.47;;;18.70;99.90;;;;;;4971515;28;20430;-74
2022/07/10 00:25:06;;;;;;;0.10;0.10;;;18.70;99.90;;;;;;4970919;28;20039;-74
2022/07/10 00:27:32;;;;;;;0.30;0.30;;;18.70;99.90;;;;;;4970252;28;20023;-75
2022/07/10 00:29:58;;;;;;;0.60;0.57;;;18.70;99.90;;;;;;4970483;28;20538;-74
2022/07/10 00:32:24;;;;;;;0.22;0.22;;;18.60;99.90;;;;;;4972026;28;20105;-74
2022/07/10 00:34:51;;;;;;;0.47;0.40;;;18.60;99.90;;;;;;4971552;28;20556;-75
2022/07/10 00:37:17;;;;;;;0.55;0.55;;;18.60;99.90;;;;;;4973440;28;20475;-74
2022/07/10 00:39:43;;;;;;;0.00;0.00;;;18.60;99.90;;;;;;4957888;28;20446;-75
2022/07/10 00:42:14;;;;;;;0.55;0.43;;;18.70;99.90;;;;;;4974888;28;20031;-74
2022/07/10 00:44:41;;;;;;;3.90;0.47;;;18.60;99.90;;;;;;4975024;28;20066;-74
2022/07/10 00:47:10;;;;;;;0.20;0.20;;;18.60;99.90;;;;;;4975047;28;20046;-74
2022/07/10 00:49:38;;;;;;;0.13;0.13;;;18.60;99.90;;;;;;4973902;28;20029;-74
2022/07/10 00:52:10;;;;;;;0.50;0.45;;;18.60;99.90;;;;;;4973688;28;20107;-74
2022/07/10 00:54:37;;;;;;;0.00;0.00;;;18.50;99.90;;;;;;4973915;28;20451;-74
2022/07/10 00:57:08;;;;;;;0.65;0.52;;;18.50;99.90;;;;;;4973573;28;20078;-75
2022/07/10 00:59:35;;;;;;;0.00;0.00;;;18.40;99.90;;;;;;4973474;28;20038;-75
2022/07/10 01:02:03;;;;;;;0.20;0.20;;;18.30;99.90;;;;;;4972896;28;20097;-74
2022/07/10 01:04:30;;;;;;;0.10;0.10;;;18.30;99.90;;;;;;4980291;28;20030;-75
2022/07/10 01:06:56;;;;;;;0.47;0.47;;;18.20;99.90;;;;;;4979083;28;20398;-74
2022/07/10 01:09:22;;;;;;;1.92;0.95;;;18.20;99.90;;;;;;4999030;28;20022;-74
2022/07/10 01:11:48;;;;;;;0.00;0.00;;;18.10;99.90;;;;;;4987898;28;20088;-74
2022/07/10 01:14:16;;;;;;;0.28;0.20;;;18.10;99.90;;;;;;4995803;28;20030;-74
2022/07/10 01:16:42;;;;;;;0.00;0.00;;;18.10;99.90;;;;;;4996595;28;20035;-74
2022/07/10 01:19:07;;;;;;;0.03;0.03;;;17.90;99.90;;;;;;4994177;28;20037;-75
2022/07/10 01:21:36;;;;;;;0.35;0.35;;;18.00;99.90;;;;;;4960404;28;20046;-74
2022/07/10 01:24:08;;;;;;;0.35;0.22;;;17.90;99.90;;;;;;5000011;28;20108;-74
2022/07/10 01:26:35;;;;;;;0.08;0.08;;;17.70;99.90;;;;;;4996027;28;20038;-74
2022/07/10 01:29:06;;;;;;;0.73;0.43;;;17.70;99.90;;;;;;4979648;28;20494;-74
2022/07/10 01:31:33;;;;;;;0.03;0.03;;;17.60;99.90;;;;;;5013546;28;20429;-74
2022/07/10 01:34:01;;;;;;;0.43;0.43;;;17.60;99.90;;;;;;5013044;28;20037;-74
2022/07/10 01:36:29;;;;;;;0.10;0.10;;;17.70;99.90;;;;;;4995654;28;20065;-74
2022/07/10 01:38:56;;;;;;;1.95;1.15;;;17.70;99.90;;;;;;5011605;28;20038;-74
2022/07/10 01:41:23;;;;;;;0.00;0.00;;;17.70;99.90;;;;;;4986843;28;20033;-74
2022/07/10 01:43:50;;;;;;;0.20;0.20;;;17.80;99.90;;;;;;4959670;28;20029;-74
2022/07/10 01:46:16;;;;;;;0.05;0.03;;;17.80;99.90;;;;;;4959923;28;20030;-74
2022/07/10 01:48:43;;;;;;;0.35;0.35;;;17.70;99.90;;;;;;4975128;28;20387;-74
2022/07/10 01:51:10;;;;;;;0.10;0.10;;;17.70;99.90;;;;;;4975983;28;20030;-75
2022/07/10 01:53:36;;;;;;;0.35;0.35;;;17.70;99.90;;;;;;4959559;28;20031;-74
2022/07/10 01:56:09;;;;;;;1.05;0.70;;;17.70;99.90;;;;;;4993409;28;20121;-74
2022/07/10 01:58:36;;;;;;;0.00;0.00;;;17.80;99.90;;;;;;4960068;28;20038;-74
2022/07/10 02:01:04;;;;;;;0.30;0.25;;;17.80;99.90;;;;;;4993271;28;20030;-74
2022/07/10 02:06:16;;;;;;;0.05;0.03;;;17.70;99.90;;;;;;4993005;28;20038;-74
2022/07/10 02:08:42;;;;;;;0.35;0.32;;;17.60;99.90;;;;;;4993055;28;20041;-74
2022/07/10 02:11:08;;;;;;;0.20;0.10;;;17.50;99.90;;;;;;4959615;28;20105;-74
2022/07/10 02:13:34;;;;;;;0.00;0.00;;;17.50;99.90;;;;;;4992644;28;20030;-74
2022/07/10 02:15:59;;;;;;;0.20;0.15;;;17.50;99.90;;;;;;5005363;28;20034;-74
2022/07/10 02:18:25;;;;;;;0.20;0.05;;;17.40;99.90;;;;;;5012621;28;20461;-74
2022/07/10 02:20:52;;;;;;;0.20;0.20;;;17.40;99.90;;;;;;5012095;28;20040;-74
2022/07/10 02:23:18;;;;;;;0.00;0.00;;;17.30;99.90;;;;;;5012453;28;20064;-74
2022/07/10 02:25:44;;;;;;;0.10;0.10;;;17.30;99.90;;;;;;4994695;28;20022;-74
2022/07/10 02:28:10;;;;;;;0.00;0.00;;;17.30;99.90;;;;;;5012310;28;20026;-74
2022/07/10 02:30:36;;;;;;;0.00;0.00;;;17.30;99.90;;;;;;4994490;28;20107;-74
2022/07/10 02:33:02;;;;;;;0.90;0.88;;;17.30;99.90;;;;;;5012267;28;20474;-74
2022/07/10 02:35:28;;;;;;;0.10;0.10;;;17.20;99.90;;;;;;4994595;28;20089;-74
2022/07/10 02:37:53;;;;;;;0.00;0.00;;;17.20;99.90;;;;;;4994508;28;20403;-74
2022/07/10 02:40:19;;;;;;;0.00;0.00;;;17.20;99.90;;;;;;4994554;28;20026;-74
2022/07/10 02:42:45;;;;;;;0.00;0.00;;;17.10;99.90;;;;;;5011781;28;20026;-74
2022/07/10 02:45:11;;;;;;;0.00;0.00;;;17.10;99.90;;;;;;4994221;28;20034;-74
2022/07/10 02:47:37;;;;;;;0.00;0.00;;;17.00;99.90;;;;;;5011730;28;20045;-74
2022/07/10 02:50:03;;;;;;;0.22;0.20;;;17.00;99.90;;;;;;5011861;28;20670;-74
2022/07/10 02:52:30;;;;;;;0.00;0.00;;;17.10;99.90;;;;;;5011670;28;20469;-74
2022/07/10 02:54:57;;;;;;;0.00;0.00;;;17.10;99.90;;;;;;5011815;28;20041;-74
2022/07/10 02:57:23;;;;;;;0.15;0.15;;;17.00;99.90;;;;;;4994354;28;20030;-74
2022/07/10 02:59:49;;;;;;;0.00;0.00;;;17.00;99.90;;;;;;5011314;28;20026;-74
2022/07/10 03:02:15;;;;;;;0.00;0.00;;;17.00;99.90;;;;;;5011248;28;20038;-74
2022/07/10 03:04:41;;;;;;;0.80;0.70;;;17.10;99.90;;;;;;5011769;28;20033;-75
2022/07/10 03:07:07;;;;;;;0.00;0.00;;;17.10;99.90;;;;;;5011869;28;20025;-74
2022/07/10 03:09:33;;;;;;;1.25;0.47;;;17.10;99.90;;;;;;4978519;28;20037;-73
2022/07/10 03:11:59;;;;;;;0.40;0.40;;;17.00;99.90;;;;;;4994423;28;20037;-74
2022/07/10 03:14:26;;;;;;;0.00;0.00;;;17.00;99.90;;;;;;5010997;28;20033;-74
2022/07/10 03:16:51;;;;;;;0.10;0.10;;;16.90;99.90;;;;;;4974439;28;20463;-74
2022/07/10 03:19:17;;;;;;;0.20;0.20;;;16.80;99.90;;;;;;4991798;28;20121;-74
2022/07/10 03:21:44;;;;;;;0.52;0.25;;;16.80;99.90;;;;;;4991800;28;20038;-74
2022/07/10 03:24:10;;;;;;;0.10;0.10;;;16.80;99.90;;;;;;4991465;28;20434;-73
2022/07/10 03:26:35;;;;;;;0.05;0.05;;;16.70;99.90;;;;;;4992042;28;20030;-74
2022/07/10 03:29:01;;;;;;;0.00;0.00;;;16.80;99.90;;;;;;4974375;28;20031;-74
2022/07/10 03:31:27;;;;;;;0.00;0.00;;;16.80;99.90;;;;;;4991801;28;20073;-74
2022/07/10 03:33:52;;;;;;;0.03;0.03;;;16.80;99.90;;;;;;4991622;28;20042;-74
2022/07/10 03:36:19;;;;;;;0.10;0.10;;;16.90;99.90;;;;;;4991604;28;20038;-74
2022/07/10 03:38:46;;;;;;;0.00;0.00;;;16.90;99.90;;;;;;4990291;28;20022;-74
2022/07/10 03:41:15;;;;;;;0.00;0.00;;;16.80;99.90;;;;;;4991721;28;20112;-74
2022/07/10 03:43:41;;;;;;;0.15;0.08;;;16.70;99.90;;;;;;4974251;28;20390;-74
2022/07/10 03:46:07;;;;;;;0.00;0.00;;;16.70;99.90;;;;;;4991710;28;20030;-74
2022/07/10 03:48:33;;;;;;;0.00;0.00;;;16.60;99.90;;;;;;4991514;28;20101;-73
2022/07/10 03:50:59;;;;;;;0.00;0.00;;;16.50;99.90;;;;;;4991620;28;20045;-74
2022/07/10 03:53:25;;;;;;;0.30;0.30;;;16.50;99.90;;;;;;4991578;28;20081;-74
2022/07/10 03:55:51;;;;;;;0.00;0.00;;;16.40;99.90;;;;;;4974201;28;20062;-74
2022/07/10 03:58:17;;;;;;;0.00;0.00;;;16.30;99.90;;;;;;4991454;28;20042;-73
2022/07/10 04:00:43;;;;;;;0.00;0.00;;;16.30;99.90;;;;;;4991717;28;20121;-74
2022/07/10 04:03:09;;;;;;;0.00;0.00;;;16.30;99.90;;;;;;4974126;28;20019;-74
2022/07/10 04:05:35;;;;;;;0.03;0.03;;;16.30;99.90;;;;;;4974500;28;20172;-74
2022/07/10 04:08:03;;;;;;;0.05;0.05;;;16.30;99.90;;;;;;4991357;28;20121;-74
2022/07/10 04:10:31;;;;;;;0.10;0.10;;;16.30;99.90;;;;;;4974112;28;20034;-74
2022/07/10 04:12:57;;;;;;;0.00;0.00;;;16.40;99.90;;;;;;4976435;28;20026;-74
2022/07/10 04:15:24;;;;;;;0.00;0.00;;;16.50;99.90;;;;;;4975965;23;20122;-68
2022/07/10 04:17:50;;;;;;;0.00;0.00;;;16.50;99.90;;;;;;4984344;28;20033;-69
2022/07/10 04:20:17;;;;;;;0.00;0.00;;;16.50;99.90;;;;;;4975224;28;20019;-69
2022/07/10 04:22:43;;;;;;;0.10;0.10;;;16.60;99.90;;;;;;4958176;28;20027;-69
2022/07/10 04:25:10;;;;;;;0.10;0.10;;;16.80;99.90;;;;;;4975172;28;20114;-69
2022/07/10 04:27:35;;;;;;;0.00;0.00;;;17.00;99.90;;;;;;4942294;28;20031;-69
2022/07/10 04:30:03;;;;;;;0.30;0.20;;;17.00;99.90;;;;;;4942072;28;20037;-69
2022/07/10 04:32:29;;;;;;;0.00;0.00;;;17.10;99.90;;;;;;4975349;28;20031;-69
2022/07/10 04:34:57;;;;;;;0.10;0.10;;;17.20;99.90;;;;;;4975310;28;20485;-69
2022/07/10 04:37:23;;;;;;;0.13;0.13;;;17.10;99.90;;;;;;4958181;28;20482;-69
2022/07/10 04:39:49;;;;;;;1.95;0.98;;;17.00;99.90;;;;;;4973858;28;20038;-69
2022/07/10 04:42:15;;;;;;;1.90;1.02;;;17.00;99.90;;;;;;4975018;28;20049;-70
2022/07/10 04:44:40;;;;;;;0.00;0.00;;;17.10;99.90;;;;;;4973678;28;20035;-70
2022/07/10 04:47:07;;;;;;;0.35;0.15;;;17.10;99.90;;;;;;4958053;28;20054;-69
2022/07/10 04:49:33;;;;;;;0.00;0.00;;;17.00;99.90;;;;;;4975037;28;20031;-69
2022/07/10 04:52:00;;;;;;;0.22;0.10;;;16.90;99.90;;;;;;4957730;28;20041;-69
2022/07/10 04:54:26;;;;;;;0.00;0.00;;;16.80;99.90;;;;;;4957455;28;20482;-69
2022/07/10 04:56:52;;;;;;;0.00;0.00;;;16.70;99.90;;;;;;4975051;28;20035;-69
2022/07/10 04:59:18;;;;;;;2.20;0.47;;;16.60;99.90;;;;;;4974743;28;20042;-69
2022/07/10 05:01:43;;;;;;;0.00;0.00;;;16.60;99.90;;;;;;4974795;28;20440;-69
2022/07/10 05:04:10;;;;;;;0.00;0.00;;;16.70;99.90;;;;;;4974646;28;20019;-69
2022/07/10 05:06:36;;;;;;;0.25;0.25;;;16.80;99.90;;;;;;4957554;28;20399;-69
2022/07/10 05:09:03;;;;;;;0.00;0.00;;;16.80;99.90;;;;;;4974337;28;20037;-69
2022/07/10 05:11:29;;;;;;;0.10;0.08;;;16.90;99.90;;;;;;4974988;28;20125;-70
2022/07/10 05:13:54;;;;;;;0.10;0.10;;;17.00;99.90;;;;;;4974626;28;20041;-70
2022/07/10 05:16:20;;;;;;;0.10;0.10;;;17.10;99.90;;;;;;4989945;28;20041;-69
2022/07/10 05:18:46;;;;;;;3.72;1.00;;;17.10;99.90;;;;;;4993811;28;20475;-70
2022/07/10 05:21:12;;;;;;;0.00;0.00;;;16.90;99.90;;;;;;4960639;28;20034;-69
2022/07/10 05:23:38;;;;;;;2.72;0.40;;;16.90;99.90;;;;;;4992586;28;20054;-70
2022/07/10 05:26:05;;;;;;;0.10;0.10;;;16.90;99.90;;;;;;4960355;28;20026;-70
2022/07/10 05:28:31;;;;;;;0.00;0.00;;;16.80;99.90;;;;;;4993760;28;20030;-69
2022/07/10 05:30:57;;;;;;;0.10;0.10;;;17.00;99.90;;;;;;4976172;28;20026;-70
2022/07/10 05:33:23;;;;;;;0.00;0.00;;;17.10;99.90;;;;;;4975976;28;20041;-69
2022/07/10 05:35:48;;;;;;;0.15;0.15;;;17.20;99.90;;;;;;4993198;28;20033;-70
2022/07/10 05:38:14;;;;;;;3.63;1.25;;;17.30;99.90;;;;;;4976373;28;20117;-70
2022/07/10 05:40:40;;;;;;;0.00;0.00;;;17.20;99.90;;;;;;4976036;28;20046;-70
2022/07/10 05:43:06;;;;;;;0.00;0.00;;;17.30;99.90;;;;;;4993274;28;20482;-70
2022/07/10 05:45:32;;;;;;;0.00;0.00;;;17.30;99.90;;;;;;4976124;28;20118;-69
2022/07/10 05:47:57;;;;;;;0.10;0.10;;;17.30;99.90;;;;;;4976035;28;20033;-70
2022/07/10 05:50:23;;;;;;;0.00;0.00;;;17.40;99.90;;;;;;4959901;28;20034;-69
2022/07/10 05:52:49;;;;;;;0.00;0.00;;;17.30;99.90;;;;;;4992936;28;20026;-73
2022/07/10 05:55:15;;;;;;;0.15;0.15;;;17.40;99.90;;;;;;4993063;28;20026;-73
2022/07/10 05:57:41;;;;;;;0.00;0.00;;;17.80;99.90;;;;;;4993285;28;20109;-74
2022/07/10 06:00:09;;;;;;;0.00;0.00;;;17.90;99.90;;;;;;4992838;28;20093;-73
2022/07/10 06:02:35;;;;;;;0.10;0.10;;;18.00;99.90;;;;;;4959038;28;20117;-73
2022/07/10 06:05:01;;;;;;;0.30;0.22;;;18.20;99.90;;;;;;4973013;28;20106;-73
2022/07/10 06:07:27;;;;;;;0.00;0.00;;;18.30;99.90;;;;;;4987948;28;20512;-74
2022/07/10 06:09:54;;;;;;;0.00;0.00;;;18.70;99.90;;;;;;4993191;28;20065;-81
2022/07/10 06:12:20;;;;;;;0.63;0.20;;;19.00;99.90;;;;;;4975583;28;20121;-76
2022/07/10 06:14:45;;;;;;;0.00;0.00;;;19.10;99.90;;;;;;4992524;28;20034;-77
2022/07/10 06:17:11;;;;;;;0.00;0.00;;;19.40;99.90;;;;;;4991605;28;20053;-77
2022/07/10 06:19:37;;;;;;;0.00;0.00;;;19.40;99.70;;;;;;4953955;28;20438;-73
2022/07/10 06:24:48;;;;;;;0.00;0.00;;;19.30;99.30;;;;;;4972964;28;20034;-74
2022/07/10 06:27:13;;;;;;;0.00;0.00;;;18.90;99.60;;;;;;4971607;28;20026;-74
2022/07/10 06:29:40;;;;;;;0.10;0.10;;;19.20;99.40;;;;;;4972936;28;20034;-75
2022/07/10 06:32:07;;;;;;;0.00;0.00;;;19.30;98.80;;;;;;4955919;28;20034;-77
2022/07/10 06:34:32;;;;;;;0.25;0.17;;;19.40;98.10;;;;;;4972886;28;20107;-76
2022/07/10 06:36:58;;;;;;;3.85;1.65;;;19.60;97.40;;;;;;4973216;28;20653;-75
2022/07/10 06:39:24;;;;;;;0.00;0.00;;;19.50;97.50;;;;;;4971651;28;20085;-73
2022/07/10 06:41:49;;;;;;;0.10;0.10;;;19.20;97.60;;;;;;4972930;28;20034;-74
2022/07/10 06:44:15;;;;;;;0.90;0.40;;;19.10;97.60;;;;;;4972704;28;20475;-75
2022/07/10 06:46:41;;;;;;;1.10;0.90;;;18.90;98.20;;;;;;4972597;28;20023;-73
2022/07/10 06:49:08;;;;;;;0.00;0.00;;;19.00;97.80;;;;;;4955579;28;20023;-72
2022/07/10 06:51:34;;;;;;;0.00;0.00;;;19.00;97.70;;;;;;4971684;28;20045;-72
2022/07/10 06:54:00;;;;;;;0.00;0.00;;;18.90;97.50;;;;;;4972634;28;20564;-72
2022/07/10 06:56:26;;;;;;;0.00;0.00;;;19.00;97.00;;;;;;4972718;28;20129;-73
2022/07/10 06:58:52;;;;;;;0.00;0.00;;;18.90;96.70;;;;;;4970237;28;20037;-73
2022/07/10 07:01:18;;;;;;;0.00;0.00;;;18.90;95.90;;;;;;4967777;28;20406;-75
2022/07/10 07:03:44;;;;;;;0.00;0.00;;;18.90;95.80;;;;;;4972539;28;20493;-74
2022/07/10 07:06:10;;;;;;;0.00;0.00;;;18.90;96.20;;;;;;4972785;28;20078;-72
2022/07/10 07:08:36;;;;;;;0.00;0.00;;;18.60;96.00;;;;;;4972482;28;20121;-73
2022/07/10 07:11:02;;;;;;;0.00;0.00;;;18.40;96.60;;;;;;4972541;28;20119;-73
2022/07/10 07:13:28;;;;;;;0.00;0.00;;;19.10;95.40;;;;;;4972355;28;20483;-74
2022/07/10 07:16:00;;;;;;;0.00;0.00;;;19.40;94.60;;;;;;4972439;28;20065;-75
2022/07/10 07:18:35;;;;;;;0.00;0.00;;;19.80;93.90;;;;;;4972332;28;20487;-74
2022/07/10 07:23:46;;;;;;;0.00;0.00;;;20.30;93.00;;;;;;4971278;28;20075;-74
2022/07/10 07:26:12;;;;;;;0.57;0.45;;;20.20;92.90;;;;;;4968168;28;20033;-72
2022/07/10 07:28:37;;;;;;;0.00;0.00;;;20.40;92.60;;;;;;4972233;28;20149;-72
2022/07/10 07:31:03;;;;;;;0.15;0.15;;;20.60;91.90;;;;;;4972521;28;20117;-71
2022/07/10 07:33:29;;;;;;;0.00;0.00;;;20.40;92.20;;;;;;4972203;28;20050;-72
2022/07/10 07:35:55;;;;;;;0.20;0.20;;;19.60;92.40;;;;;;4972587;28;20039;-72
2022/07/10 07:38:20;;;;;;;0.00;0.00;;;19.70;92.30;;;;;;4972052;28;20104;-72
2022/07/10 07:40:46;;;;;;;0.00;0.00;;;19.90;92.20;;;;;;4972119;28;20027;-72
2022/07/10 07:43:12;;;;;;;0.00;0.00;;;19.90;91.90;;;;;;4972080;28;20041;-72
2022/07/10 07:45:38;;;;;;;0.00;0.00;;;19.90;91.60;;;;;;4972014;28;20472;-73
2022/07/10 07:48:04;;;;;;;0.00;0.00;;;19.90;91.60;;;;;;4974983;28;20497;-72
2022/07/10 07:50:35;;;;;;;0.00;0.00;;;19.90;91.10;;;;;;4975974;28;20121;-72
2022/07/10 07:53:04;;;;;;;0.00;0.00;;;19.90;91.10;;;;;;4976034;28;20033;-75
2022/07/10 07:55:32;;;;;;;0.55;0.35;;;19.90;90.90;;;;;;4974617;28;20058;-73
2022/07/10 07:57:59;;;;;;;0.00;0.00;;;19.80;90.80;;;;;;4974815;28;20548;-73
2022/07/10 08:00:27;;;;;;;0.15;0.15;;;19.70;91.00;;;;;;4970450;28;20487;-73
2022/07/10 08:02:55;;;;;;;0.00;0.00;;;19.60;91.10;;;;;;4955388;28;20569;-73
2022/07/10 08:05:25;;;;;;;8.88;0.38;;;19.60;91.20;;;;;;4975903;28;20042;-73
2022/07/10 08:07:57;;;;;;;0.00;0.00;;;19.50;91.40;;;;;;4975258;28;20038;-73
2022/07/10 08:10:26;;;;;;;0.20;0.20;;;19.50;91.20;;;;;;4975571;28;20619;-74
2022/07/10 08:12:52;;;;;;;0.00;0.00;;;19.80;90.90;;;;;;4975486;28;20027;-73
2022/07/10 08:15:23;;;;;;;0.00;0.00;;;19.70;90.90;;;;;;4958046;28;20121;-73
2022/07/10 08:17:55;;;;;;;0.00;0.00;;;19.40;91.20;;;;;;4975231;28;20034;-72
2022/07/10 08:20:21;;;;;;;0.00;0.00;;;19.50;90.80;;;;;;4975312;28;20060;-74
2022/07/10 08:22:48;;;;;;;0.00;0.00;;;19.40;91.40;;;;;;4974810;28;20037;-74
2022/07/10 08:25:15;;;;;;;0.00;0.00;;;19.70;90.50;;;;;;4973960;28;20081;-73
2022/07/10 08:27:41;;;;;;;0.00;0.00;;;19.70;90.50;;;;;;4974418;28;20445;-73
2022/07/10 08:30:08;;;;;;;0.00;0.00;;;19.60;90.70;;;;;;4974003;28;20105;-74
2022/07/10 08:32:36;;;;;;;0.00;0.00;;;19.50;90.80;;;;;;4974164;28;20026;-73
2022/07/10 08:35:03;;;;;;;0.00;0.00;;;19.40;90.60;;;;;;4975094;28;20030;-74
2022/07/10 08:37:29;;;;;;;0.00;0.00;;;19.60;90.80;;;;;;4974988;28;20034;-73
2022/07/10 08:39:54;;;;;;;0.10;0.10;;;19.60;90.60;;;;;;4974754;28;20031;-74
2022/07/10 08:42:21;;;;;;;0.25;0.25;;;20.00;90.50;;;;;;4974824;28;20035;-74
2022/07/10 08:44:47;;;;;;;0.08;0.03;;;19.90;90.30;;;;;;4975316;28;20019;-74
2022/07/10 08:47:13;;;;;;;0.00;0.00;;;19.90;89.50;;;;;;4974080;28;20026;-74
2022/07/10 08:49:47;;;;;;;0.00;0.00;;;19.50;90.20;;;;;;4990568;28;20032;-73
2022/07/10 08:52:33;;;;;;;0.00;0.00;;;19.70;90.40;;;;;;4994389;28;20037;-73
2022/07/10 08:54:59;;;;;;;0.00;0.00;;;19.70;90.10;;;;;;4974224;28;20029;-73
2022/07/10 08:57:26;;;;;;;0.00;0.00;;;19.50;90.00;;;;;;4973596;28;20035;-73
2022/07/10 08:59:53;;;;;;;0.00;0.00;;;19.20;90.20;;;;;;4974530;28;20035;-73
2022/07/10 09:02:19;;;;;;;1.45;0.80;;;19.20;90.50;;;;;;4974246;28;20066;-74
2022/07/10 09:04:45;;;;;;;0.00;0.00;;;19.10;90.20;;;;;;4973277;28;20054;-74
2022/07/10 09:07:11;;;;;;;0.90;0.32;;;19.00;90.40;;;;;;4979074;28;20034;-73
2022/07/10 09:09:57;;;;;;;0.00;0.00;;;19.10;90.40;;;;;;4972725;28;20030;-73
2022/07/10 09:12:24;;;;;;;0.00;0.00;;;19.20;90.20;;;;;;4974509;28;20026;-74
2022/07/10 09:14:51;;;;;;;0.00;0.00;;;19.20;89.70;;;;;;4956913;28;20122;-74
2022/07/10 09:17:18;;;;;;;0.05;0.05;;;19.10;89.90;;;;;;4973655;28;20027;-74
2022/07/10 09:19:44;;;;;;;0.00;0.00;;;19.20;90.10;;;;;;4989056;28;20032;-73
2022/07/10 09:22:12;;;;;;;0.10;0.10;;;19.20;89.70;;;;;;4993743;28;20104;-74
2022/07/10 09:24:47;;;;;;;0.65;0.55;;;19.20;90.20;;;;;;4960247;28;20109;-74
2022/07/10 09:27:15;;;;;;;0.05;0.05;;;19.50;90.00;;;;;;4993531;28;20042;-73
2022/07/10 09:29:56;;;;;;;0.00;0.00;;;19.70;89.60;;;;;;4976195;28;20117;-74
2022/07/10 09:32:22;;;;;;;0.00;0.00;;;20.20;88.70;;;;;;4993656;28;20041;-73
2022/07/10 09:37:42;;;;;;;0.63;0.63;;;20.50;87.10;;;;;;4993483;28;20029;-72
2022/07/10 09:40:09;;;;;;;0.00;0.00;;;20.70;85.50;;;;;;4993419;28;20057;-76
2022/07/10 09:42:40;;;;;;;0.00;0.00;;;20.50;86.60;;;;;;4976117;28;20045;-73
2022/07/10 09:45:16;;;;;;;0.52;0.45;;;20.60;85.90;;;;;;4993328;28;20041;-78
2022/07/10 09:48:04;;;;;;;1.65;0.25;;;20.80;84.70;;;;;;4992962;28;20109;-74
2022/07/10 09:50:36;;;;;;;0.00;0.00;;;20.90;85.10;;;;;;4954645;29;20038;-74
2022/07/10 09:53:09;;;;;;;0.40;0.38;;;20.90;84.50;;;;;;4954108;29;20039;-74
2022/07/10 09:55:37;;;;;;;0.00;0.00;;;20.80;84.50;;;;;;4962691;28;20026;-74
2022/07/10 09:58:08;;;;;;;0.00;0.00;;;20.60;85.00;;;;;;4973887;28;20031;-74
2022/07/10 10:00:45;;;;;;;0.00;0.00;;;20.40;84.80;;;;;;4971245;28;20047;-73
2022/07/10 10:03:11;;;;;;;0.00;0.00;;;20.40;84.50;;;;;;4980290;28;20023;-74
2022/07/10 10:06:16;;;;;;;0.10;0.10;;;20.40;84.70;;;;;;4973506;28;20027;-73
2022/07/10 10:08:54;;;;;;;0.05;0.05;;;20.20;86.20;;;;;;4954213;28;20030;-73
2022/07/10 10:11:21;;;;;;;0.00;0.00;;;20.50;86.20;;;;;;4956350;28;20031;-73
2022/07/10 10:13:48;;;;;;;0.00;0.00;;;20.70;84.60;;;;;;4955999;28;20034;-73
2022/07/10 10:16:14;;;;;;;0.08;0.00;;;20.90;85.10;;;;;;4956213;28;20050;-73
2022/07/10 10:21:28;;;;;;;0.00;0.00;;;21.60;83.60;;;;;;4977754;28;20053;-73
2022/07/10 10:23:55;;;;;;;0.00;0.00;;;21.80;82.90;;;;;;4975289;28;20026;-74
2022/07/10 10:26:23;;;;;;;2.40;0.30;;;22.00;82.20;;;;;;4992688;28;20042;-74
2022/07/10 10:28:52;;;;;;;1.88;0.47;;;22.20;81.90;;;;;;4992641;28;20058;-74
2022/07/10 10:31:19;;;;;;;0.05;0.00;;;22.20;81.60;;;;;;4992220;28;20041;-76
2022/07/10 10:33:46;;;;;;;0.00;0.00;;;22.10;81.30;;;;;;4980752;28;20034;-74
2022/07/10 10:36:36;;;;;;;0.10;0.10;;;21.70;81.90;;;;;;4982621;28;20493;-73
2022/07/10 10:39:16;;;;;;;0.00;0.00;;;21.80;81.60;;;;;;4974193;28;20050;-73
2022/07/10 10:41:55;;;;;;;0.00;0.00;;;22.00;80.50;;;;;;4989652;28;20031;-74
2022/07/10 10:44:31;;;;;;;0.00;0.00;;;22.00;80.50;;;;;;4974328;28;20041;-74
2022/07/10 10:47:05;;;;;;;0.00;0.00;;;22.30;81.10;;;;;;4982377;28;20034;-74
2022/07/10 10:49:49;;;;;;;3.50;1.10;;;22.40;79.80;;;;;;4987069;28;20034;-73
2022/07/10 10:52:16;;;;;;;0.00;0.00;;;22.30;78.50;;;;;;4990810;28;20113;-74
2022/07/10 10:54:57;;;;;;;0.00;0.00;;;22.10;78.20;;;;;;4990229;28;20030;-74
2022/07/10 10:57:39;;;;;;;1.23;0.20;;;22.10;79.40;;;;;;4972812;28;20034;-74
2022/07/10 11:00:07;;;;;;;0.00;0.00;;;22.30;78.80;;;;;;4972188;28;20046;-73
2022/07/10 11:02:39;;;;;;;0.00;0.00;;;22.40;78.80;;;;;;4970735;28;20059;-74
2022/07/10 11:05:23;;;;;;;0.00;0.00;;;22.30;79.20;;;;;;4972193;28;20411;-74
2022/07/10 11:07:56;;;;;;;0.10;0.10;;;22.70;79.20;;;;;;4974751;28;20093;-73
2022/07/10 11:10:44;;;;;;;0.00;0.00;;;23.10;77.90;;;;;;4981423;28;20046;-74
2022/07/10 11:13:16;;;;;;;0.20;0.20;;;23.20;76.80;;;;;;4953189;29;20471;-72
2022/07/10 11:15:52;;;;;;;0.00;0.00;;;22.70;77.30;;;;;;4952572;28;20435;-74
2022/07/10 11:18:31;;;;;;;1.45;0.30;;;22.20;78.50;;;;;;4962518;28;20027;-74
2022/07/10 11:20:56;;;;;;;0.00;0.00;;;22.20;78.40;;;;;;4974677;28;20030;-75
2022/07/10 11:24:05;;;;;;;0.00;0.00;;;22.40;78.50;;;;;;4962788;28;20045;-75
2022/07/10 11:26:51;;;;;;;0.00;0.00;;;22.40;77.90;;;;;;4991787;28;20068;-78
2022/07/10 11:29:18;;;;;;;0.00;0.00;;;22.30;78.50;;;;;;4973903;28;20437;-77
2022/07/10 11:31:53;;;;;;;1.15;0.38;;;22.60;78.10;;;;;;4991533;28;20034;-75
2022/07/10 11:34:21;;;;;;;0.08;0.08;;;22.70;77.60;;;;;;4991116;28;20582;-75
2022/07/10 11:36:47;;;;;;;0.00;0.00;;;23.10;76.60;;;;;;4991787;28;20022;-72
2022/07/10 11:39:14;;;;;;;0.17;0.17;;;23.30;76.10;;;;;;4991862;28;20027;-73
2022/07/10 11:41:45;;;;;;;0.00;0.00;;;22.60;76.00;;;;;;4973957;28;20034;-74
2022/07/10 11:44:16;;;;;;;0.00;0.00;;;23.00;77.10;;;;;;4991616;28;20030;-74
2022/07/10 11:46:48;;;;;;;0.00;0.00;;;23.10;76.30;;;;;;4974400;28;20026;-74
2022/07/10 11:49:15;;;;;;;0.00;0.00;;;23.30;75.80;;;;;;4991699;28;20089;-74
2022/07/10 11:51:42;;;;;;;1.88;0.10;;;23.40;75.60;;;;;;4991443;28;20443;-74
2022/07/10 11:54:17;;;;;;;0.00;0.00;;;23.70;75.80;;;;;;4991985;28;20085;-75
2022/07/10 11:56:52;;;;;;;2.55;0.40;;;23.80;75.00;;;;;;4957113;28;20027;-74
2022/07/10 11:59:22;;;;;;;0.00;0.00;;;24.00;75.00;;;;;;4971856;28;20447;-74
2022/07/10 12:01:50;;;;;;;;;;;24.00;75.10;;;;;;4977285;28;20400;-74
2022/07/10 12:04:19;;;;;;;0.17;0.17;;;24.10;74.70;;;;;;4979975;28;19924;-74
2022/07/10 12:06:49;;;;;;;0.10;0.03;;;23.90;75.50;;;;;;4985495;28;20097;-74
2022/07/10 12:09:20;;;;;;;0.32;0.32;;;23.70;75.80;;;;;;4981526;28;20023;-74
2022/07/10 12:12:04;;;;;;;0.00;0.00;;;23.80;77.50;;;;;;4982478;28;20053;-74
2022/07/10 12:14:30;;;;;;;0.00;0.00;;;23.60;76.80;;;;;;4954566;28;20069;-74
2022/07/10 12:16:57;;;;;;;3.50;1.98;;;23.60;76.10;;;;;;4954407;28;20045;-75
2022/07/10 12:19:38;;;;;;;0.00;0.00;;;23.50;77.00;;;;;;4967719;28;20031;-74
2022/07/10 12:22:07;;;;;;;7.10;1.20;;;23.70;76.00;;;;;;4990708;28;20026;-74
2022/07/10 12:24:33;;;;;;;0.68;0.60;;;24.20;76.70;;;;;;4973989;28;20030;-75
2022/07/10 12:26:59;;;;;;;0.00;0.00;;;24.40;75.10;;;;;;4973798;28;20022;-75
2022/07/10 12:29:29;;;;;;;0.05;0.05;;;24.60;74.80;;;;;;4991159;28;20394;-74
2022/07/10 12:32:01;;;;;;;0.00;0.00;;;24.30;75.10;;;;;;4990398;28;20406;-77
2022/07/10 12:34:34;;;;;;;0.95;0.47;;;24.50;75.50;;;;;;4976154;28;20316;-78
2022/07/10 12:37:09;;;;;;;0.00;0.00;;;24.30;75.30;;;;;;4994461;28;20030;-70
2022/07/10 12:39:38;;;;;;;1.30;0.35;;;24.10;74.50;;;;;;4977659;28;20022;-78
2022/07/10 12:42:06;;;;;;;1.77;0.45;;;24.20;75.10;;;;;;4927908;28;20105;-77
2022/07/10 12:44:47;;;;;;;0.00;0.00;;;24.10;75.70;;;;;;4993871;28;20102;-77
2022/07/10 12:47:15;;;;;;;3.80;0.47;;;23.90;75.80;;;;;;4961374;28;20513;-77
2022/07/10 12:50:08;;;;;;;0.50;0.50;;;23.50;76.00;;;;;;4994518;28;20562;-79
2022/07/10 12:52:38;;;;;;;1.17;0.45;;;23.90;75.40;;;;;;4973593;28;20046;-77
2022/07/10 12:55:14;;;;;;;0.15;0.15;;;24.10;75.00;;;;;;4975250;28;20026;-78
2022/07/10 12:57:54;;;;;;;0.30;0.20;;;24.40;74.50;;;;;;4959071;28;20034;-77
2022/07/10 13:00:32;;;;;;;1.13;0.57;;;24.20;74.20;;;;;;4976087;28;20023;-78
2022/07/10 13:03:17;;;;;;;0.00;0.00;;;23.90;74.80;;;;;;4993322;28;20120;-77
2022/07/10 13:05:43;;;;;;;0.00;0.00;;;23.90;75.60;;;;;;4976703;28;20022;-78
2022/07/10 13:08:19;;;;;;;1.23;0.75;;;24.20;75.80;;;;;;4993730;28;20089;-78